Flight Information

DEPARTURE
SANTA MARIA, CA
Elevation:
261
Runways:
2/20 - 5199x75 - ASPH-G
12/30 - 8004x150 - ASPH-G
ATIS:
121.15 805-347-9136
Ground:
121.9
Tower:
118.3
DESTINATION
,
Elevation:
TPA:
1000 (est.)


6873.7 NM71° True-14° Var57° HDG

Flight Plan:
(click to file on line)

1. Type
2. Aircraft Identification
3. Aircraft Type / Special Equipment
4. True Airspeed
kts
5. Departure Airport
(ICAO code)
6. Arriving Airport
(ICAO code)
7. Cruising Altitude
ft
8. Alternate Airport
(ICAO code)
9. Route of Flight
10. Remarks


00:00:00 Departure ATIS: Destination ATIS:

Clearance Limit:
Route:
Altitude: Expect in minutes
Frequency:
Transponder: (7500 Hijack / 7600 Lost Comms / 7700 Emergency)


KSMX 261351Z 00000KT 1/4SM R12/2800VP6000FT FG VV002 12/11 A3000 RMK AO2 SLP162 T01170111
Time: 2022-06-26T13:51:00Z
1656251601
Winds: calm
Visibility: 0.25 sm
Clouds (AGL): OVX 0
Temperature: 11.7 C
Dew Point: 11.1 C
Pressure: 30.0 in Hgbr


Notes:

Data extracted from FAA Digital Chart Supplement. Effective: 0901Z Thursday, 27 JAN 2022 to 0900z Thursday, 24 MAR 2022
Current ATIS data is provided courtisy of PilotEdge.